Time;durP1;ratioP1;P1;durP2;ratioP2;P2;SDS_P1;SDS_P2;PMS_P1;PMS_P2;Temp;Humidity;BMP_temperature;BMP_pressure;BME280_temperature;BME280_humidity;BME280_pressure;Samples;Min_cycle;Max_cycle;Signal;HPM_P1;HPM_P2
2023/12/19 00:00:00;;;;;;;24.03;17.00;;;5.50;99.90;;;;;;5005130;28;20183;-74
2023/12/19 00:02:28;;;;;;;26.50;18.07;;;5.50;99.90;;;;;;4979916;28;20216;-74
2023/12/19 00:04:55;;;;;;;24.53;16.13;;;5.50;99.90;;;;;;4989045;28;20685;-74
2023/12/19 00:07:23;;;;;;;21.87;16.27;;;5.50;99.90;;;;;;5004998;28;20195;-74
2023/12/19 00:09:52;;;;;;;25.27;16.23;;;5.50;99.90;;;;;;4996859;28;20196;-75
2023/12/19 00:12:19;;;;;;;22.97;16.27;;;5.60;99.90;;;;;;4978557;28;20222;-74
2023/12/19 00:14:47;;;;;;;21.00;15.70;;;5.50;99.90;;;;;;4979216;28;20202;-74
2023/12/19 00:17:14;;;;;;;20.37;15.00;;;5.40;99.90;;;;;;4985046;28;20678;-74
2023/12/19 00:19:42;;;;;;;22.77;16.40;;;5.30;99.90;;;;;;4996408;28;20177;-75
2023/12/19 00:22:09;;;;;;;20.90;15.37;;;5.30;99.90;;;;;;4978285;28;20225;-74
2023/12/19 00:24:39;;;;;;;21.13;15.97;;;5.30;99.90;;;;;;4985144;28;20225;-74
2023/12/19 00:27:07;;;;;;;22.97;15.77;;;5.40;99.90;;;;;;4998108;28;20193;-74
2023/12/19 00:29:35;;;;;;;23.43;15.97;;;5.30;99.90;;;;;;4987141;28;20205;-75
2023/12/19 00:32:02;;;;;;;24.40;15.93;;;5.30;99.90;;;;;;4998963;28;20231;-74
2023/12/19 00:34:30;;;;;;;24.37;16.53;;;5.30;99.90;;;;;;4994126;28;20206;-74
2023/12/19 00:36:57;;;;;;;21.27;15.77;;;5.30;99.90;;;;;;5001587;28;20190;-75
2023/12/19 00:39:25;;;;;;;23.83;17.93;;;5.30;99.90;;;;;;4978246;28;20207;-74
2023/12/19 00:41:52;;;;;;;21.80;16.43;;;5.30;99.90;;;;;;4977162;28;20228;-75
2023/12/19 00:44:21;;;;;;;22.87;16.43;;;5.30;99.90;;;;;;4982149;28;20210;-74
2023/12/19 00:46:48;;;;;;;23.67;16.47;;;5.20;99.90;;;;;;4984357;28;20203;-74
2023/12/19 00:49:16;;;;;;;23.40;16.30;;;5.30;99.90;;;;;;4994279;28;20201;-74
2023/12/19 00:51:43;;;;;;;24.97;16.73;;;5.20;99.90;;;;;;4995138;28;20299;-74
2023/12/19 00:54:10;;;;;;;20.60;16.00;;;5.30;99.90;;;;;;4992908;28;20204;-74
2023/12/19 00:56:38;;;;;;;22.37;15.00;;;5.30;99.90;;;;;;4978216;28;20201;-74
2023/12/19 00:59:05;;;;;;;21.70;17.17;;;5.30;99.90;;;;;;5006535;28;20207;-74
2023/12/19 01:01:34;;;;;;;21.37;14.57;;;5.30;99.90;;;;;;4996654;28;20237;-74
2023/12/19 01:04:01;;;;;;;20.67;15.67;;;5.30;99.90;;;;;;4994816;28;20210;-74
2023/12/19 01:06:29;;;;;;;24.17;15.63;;;5.30;99.90;;;;;;4995906;28;20693;-74
2023/12/19 01:08:57;;;;;;;22.30;15.70;;;5.30;99.90;;;;;;4978111;28;20203;-75
2023/12/19 01:11:24;;;;;;;22.30;16.67;;;5.30;99.90;;;;;;4982991;28;20232;-74
2023/12/19 01:13:52;;;;;;;22.57;17.57;;;5.40;99.90;;;;;;4986530;28;20200;-74
2023/12/19 01:16:19;;;;;;;21.43;16.63;;;5.40;99.90;;;;;;4984012;28;20192;-74
2023/12/19 01:18:48;;;;;;;22.63;16.17;;;5.40;99.90;;;;;;4977484;28;20208;-74
2023/12/19 01:21:15;;;;;;;21.13;15.10;;;5.40;99.90;;;;;;4977312;28;20236;-74
2023/12/19 01:23:43;;;;;;;21.77;15.87;;;5.40;99.90;;;;;;4980314;28;20689;-74
2023/12/19 01:26:22;;;;;;;22.17;16.23;;;5.30;99.90;;;;;;4996827;28;20213;-74
2023/12/19 01:28:49;;;;;;;20.53;15.53;;;5.30;99.90;;;;;;5002106;28;20187;-74
2023/12/19 01:31:17;;;;;;;21.33;15.33;;;5.30;99.90;;;;;;5002068;28;20232;-74
2023/12/19 01:33:44;;;;;;;20.20;13.80;;;5.30;99.90;;;;;;4978177;28;20200;-74
2023/12/19 01:36:13;;;;;;;18.77;14.03;;;5.30;99.90;;;;;;4995287;28;20200;-74
2023/12/19 01:38:40;;;;;;;20.63;15.17;;;5.30;99.90;;;;;;4971120;28;20216;-74
2023/12/19 01:41:08;;;;;;;21.30;15.37;;;5.30;99.90;;;;;;5007140;28;20600;-74
2023/12/19 01:43:35;;;;;;;19.37;15.30;;;5.30;99.90;;;;;;5012450;28;20208;-74
2023/12/19 01:46:02;;;;;;;18.77;14.47;;;5.30;99.90;;;;;;4986266;28;20212;-74
2023/12/19 01:48:30;;;;;;;18.73;14.00;;;5.30;99.90;;;;;;4983228;28;20655;-74
2023/12/19 01:50:58;;;;;;;16.83;12.47;;;5.30;99.90;;;;;;4982465;28;20221;-74
2023/12/19 01:53:26;;;;;;;17.87;13.43;;;5.40;99.90;;;;;;4972226;28;20566;-74
2023/12/19 01:55:56;;;;;;;20.07;13.37;;;5.40;99.90;;;;;;4964803;28;20206;-74
2023/12/19 01:58:24;;;;;;;15.97;12.33;;;5.40;99.90;;;;;;4992932;28;20208;-74
2023/12/19 02:00:52;;;;;;;17.00;12.80;;;5.40;99.90;;;;;;4985519;28;20199;-74
2023/12/19 02:03:21;;;;;;;17.07;13.47;;;5.30;99.90;;;;;;4996081;28;20196;-74
2023/12/19 02:05:53;;;;;;;16.60;12.27;;;5.40;99.90;;;;;;4986650;28;20220;-74
2023/12/19 02:08:22;;;;;;;14.93;11.70;;;5.40;99.90;;;;;;4976037;28;20196;-74
2023/12/19 02:10:51;;;;;;;14.30;11.07;;;5.40;99.90;;;;;;4985525;28;20199;-74
2023/12/19 02:13:19;;;;;;;14.90;11.33;;;5.50;99.90;;;;;;4985472;28;20207;-74
2023/12/19 02:15:47;;;;;;;14.10;11.17;;;5.40;99.90;;;;;;4997768;28;20197;-74
2023/12/19 02:18:15;;;;;;;16.50;12.17;;;5.50;99.90;;;;;;4974952;28;20197;-74
2023/12/19 02:20:43;;;;;;;15.17;11.33;;;5.50;99.90;;;;;;4980146;28;20553;-74
2023/12/19 02:23:11;;;;;;;16.83;12.30;;;5.50;99.90;;;;;;4996144;28;20222;-74
2023/12/19 02:25:39;;;;;;;17.53;13.17;;;5.60;99.90;;;;;;4989659;28;20216;-74
2023/12/19 02:28:07;;;;;;;15.20;12.40;;;5.50;99.90;;;;;;4982444;28;20217;-74
2023/12/19 02:30:35;;;;;;;16.20;12.00;;;5.50;99.90;;;;;;4988932;28;20188;-74
2023/12/19 02:33:02;;;;;;;17.97;12.87;;;5.50;99.90;;;;;;5011585;28;20588;-74
2023/12/19 02:35:30;;;;;;;17.53;13.13;;;5.60;99.90;;;;;;4990832;28;20220;-74
2023/12/19 02:37:57;;;;;;;15.13;11.70;;;5.60;99.90;;;;;;4983332;28;20207;-74
2023/12/19 02:40:27;;;;;;;15.93;11.60;;;5.60;99.90;;;;;;4977104;28;20207;-74
2023/12/19 02:42:54;;;;;;;17.20;13.53;;;5.70;99.90;;;;;;4992857;28;20228;-75
2023/12/19 02:45:21;;;;;;;17.47;12.73;;;5.60;99.90;;;;;;4985077;28;20215;-75
2023/12/19 02:47:49;;;;;;;19.83;13.43;;;5.60;99.90;;;;;;4997058;28;20201;-74
2023/12/19 02:50:16;;;;;;;19.80;13.63;;;5.70;99.90;;;;;;4979556;28;20207;-74
2023/12/19 02:52:43;;;;;;;14.00;11.67;;;5.70;99.90;;;;;;4992376;28;20221;-75
2023/12/19 02:55:11;;;;;;;20.23;14.03;;;5.70;99.90;;;;;;4990398;28;20199;-75
2023/12/19 02:57:40;;;;;;;16.57;12.93;;;5.70;99.90;;;;;;4982695;28;20559;-74
2023/12/19 03:00:08;;;;;;;18.83;14.37;;;5.70;99.90;;;;;;4997236;28;20574;-75
2023/12/19 03:02:35;;;;;;;19.67;13.90;;;5.70;99.90;;;;;;4994814;28;20274;-75
2023/12/19 03:05:03;;;;;;;16.20;11.93;;;5.80;99.90;;;;;;5003662;28;20549;-75
2023/12/19 03:07:30;;;;;;;19.47;13.60;;;5.80;99.90;;;;;;4986490;28;20221;-75
2023/12/19 03:09:58;;;;;;;17.50;13.73;;;5.70;99.90;;;;;;5004583;28;20203;-75
2023/12/19 03:12:25;;;;;;;18.93;13.77;;;5.80;99.90;;;;;;5012220;28;20213;-75
2023/12/19 03:14:54;;;;;;;17.10;12.73;;;5.80;99.90;;;;;;4987879;28;20194;-75
2023/12/19 03:17:21;;;;;;;19.53;14.03;;;5.80;99.90;;;;;;4998286;28;20198;-75
2023/12/19 03:19:49;;;;;;;21.10;13.93;;;5.80;99.90;;;;;;5003845;28;20185;-75
2023/12/19 03:22:16;;;;;;;20.97;14.53;;;5.80;99.90;;;;;;4971538;28;20218;-75
2023/12/19 03:24:44;;;;;;;18.80;14.37;;;5.80;99.90;;;;;;5006792;28;20191;-75
2023/12/19 03:27:12;;;;;;;17.40;13.80;;;5.90;99.90;;;;;;4983268;28;20545;-75
2023/12/19 03:29:39;;;;;;;23.13;15.90;;;5.90;99.90;;;;;;4979145;28;20196;-75
2023/12/19 03:32:08;;;;;;;24.13;14.80;;;5.90;99.90;;;;;;5006872;28;20227;-75
2023/12/19 03:34:37;;;;;;;26.57;17.57;;;6.00;99.90;;;;;;5000759;28;20177;-75
2023/12/19 03:37:04;;;;;;;22.97;15.73;;;6.00;99.90;;;;;;5007277;28;20188;-75
2023/12/19 03:39:32;;;;;;;30.40;18.10;;;5.90;99.90;;;;;;4992562;28;20196;-75
2023/12/19 03:41:59;;;;;;;26.97;18.33;;;6.00;99.90;;;;;;4971058;28;20231;-75
2023/12/19 03:44:27;;;;;;;28.03;18.73;;;6.00;99.90;;;;;;4976275;28;20212;-75
2023/12/19 03:46:54;;;;;;;29.30;17.33;;;6.00;99.90;;;;;;4988502;28;20221;-75
2023/12/19 03:49:23;;;;;;;29.47;18.87;;;6.00;99.90;;;;;;4994947;28;20208;-75
2023/12/19 03:51:50;;;;;;;30.23;19.63;;;6.00;99.90;;;;;;4997977;28;20221;-75
2023/12/19 03:54:17;;;;;;;33.37;19.07;;;6.00;99.90;;;;;;5012083;28;20197;-75
2023/12/19 03:56:45;;;;;;;33.27;20.07;;;6.00;99.90;;;;;;4987559;28;20202;-75
2023/12/19 03:59:12;;;;;;;36.07;21.30;;;6.00;99.90;;;;;;4965260;28;20206;-75
2023/12/19 04:01:44;;;;;;;33.57;19.80;;;6.00;99.90;;;;;;4974632;28;20217;-75
2023/12/19 04:04:13;;;;;;;34.07;21.03;;;6.00;99.90;;;;;;4977003;28;20207;-75
2023/12/19 04:06:43;;;;;;;30.63;19.50;;;6.10;99.90;;;;;;5012017;28;20562;-75
2023/12/19 04:09:11;;;;;;;30.73;19.50;;;6.10;99.90;;;;;;5010358;28;20261;-75
2023/12/19 04:12:10;;;;;;;31.23;19.10;;;6.10;99.90;;;;;;4991321;28;20574;-75
2023/12/19 04:14:38;;;;;;;26.83;18.57;;;6.10;99.90;;;;;;4976351;28;20225;-75
2023/12/19 04:17:05;;;;;;;30.57;18.60;;;6.10;99.90;;;;;;4976196;28;20193;-75
2023/12/19 04:19:33;;;;;;;25.67;17.13;;;6.10;99.90;;;;;;5007078;28;20187;-74
2023/12/19 04:22:02;;;;;;;25.27;16.50;;;6.10;99.90;;;;;;4997396;28;20214;-75
2023/12/19 04:24:29;;;;;;;27.97;16.73;;;6.10;99.90;;;;;;4994166;28;20192;-75
2023/12/19 04:26:56;;;;;;;26.03;17.37;;;6.10;99.90;;;;;;4975321;28;20220;-75
2023/12/19 04:29:24;;;;;;;25.17;16.53;;;6.20;99.90;;;;;;4984294;28;20205;-75
2023/12/19 04:31:51;;;;;;;23.33;15.07;;;6.20;99.90;;;;;;5003910;28;20229;-75
2023/12/19 04:34:18;;;;;;;23.10;14.40;;;6.20;99.90;;;;;;4990273;28;20202;-74
2023/12/19 04:36:46;;;;;;;20.53;14.17;;;6.20;99.90;;;;;;5000107;28;20199;-74
2023/12/19 04:39:15;;;;;;;21.20;14.33;;;6.20;99.90;;;;;;5004030;28;20209;-75
2023/12/19 04:41:42;;;;;;;21.80;14.70;;;6.20;99.90;;;;;;4995455;28;20229;-75
2023/12/19 04:44:09;;;;;;;19.77;12.87;;;6.20;99.90;;;;;;4974417;28;20202;-75
2023/12/19 04:46:37;;;;;;;19.07;12.53;;;6.30;99.90;;;;;;5014238;28;20577;-75
2023/12/19 04:49:04;;;;;;;15.30;12.23;;;6.30;99.90;;;;;;4997364;28;20192;-74
2023/12/19 04:51:31;;;;;;;19.97;13.67;;;6.30;99.90;;;;;;4985336;28;20226;-75
2023/12/19 04:53:59;;;;;;;16.93;12.23;;;6.30;99.90;;;;;;4982661;28;20201;-75
2023/12/19 04:56:28;;;;;;;18.20;12.53;;;6.40;99.90;;;;;;5015056;28;20180;-75
2023/12/19 04:58:55;;;;;;;16.63;11.93;;;6.30;99.90;;;;;;5013238;28;20194;-75
2023/12/19 05:01:23;;;;;;;18.43;12.23;;;6.40;99.90;;;;;;4994967;28;20223;-75
2023/12/19 05:03:50;;;;;;;16.40;11.53;;;6.40;99.90;;;;;;4995323;28;20195;-75
2023/12/19 05:06:18;;;;;;;15.87;11.53;;;6.40;99.90;;;;;;4977305;28;20202;-75
2023/12/19 05:08:46;;;;;;;16.23;10.87;;;6.40;99.90;;;;;;5000137;28;20669;-75
2023/12/19 05:11:14;;;;;;;15.00;10.77;;;6.40;99.90;;;;;;4993295;28;20234;-75
2023/12/19 05:13:42;;;;;;;15.07;10.37;;;6.40;99.90;;;;;;5005541;28;20194;-75
2023/12/19 05:16:12;;;;;;;15.87;10.53;;;6.40;99.90;;;;;;4989782;28;20201;-75
2023/12/19 05:18:40;;;;;;;13.37;8.97;;;6.50;99.90;;;;;;4977490;28;20206;-75
2023/12/19 05:21:08;;;;;;;11.90;9.40;;;6.50;99.90;;;;;;4992476;28;20228;-75
2023/12/19 05:23:36;;;;;;;13.80;9.77;;;6.50;99.90;;;;;;5014606;28;20179;-75
2023/12/19 05:26:04;;;;;;;12.27;8.30;;;6.50;99.90;;;;;;4997080;28;20198;-75
2023/12/19 05:28:31;;;;;;;12.53;8.90;;;6.50;99.90;;;;;;5001700;28;20226;-75
2023/12/19 05:31:00;;;;;;;11.53;7.87;;;6.50;99.90;;;;;;4983748;28;20226;-75
2023/12/19 05:33:28;;;;;;;13.50;8.87;;;6.50;99.90;;;;;;5010505;28;20226;-75
2023/12/19 05:35:56;;;;;;;9.73;7.50;;;6.50;99.90;;;;;;4977438;28;20207;-75
2023/12/19 05:38:24;;;;;;;9.37;7.23;;;6.40;99.90;;;;;;4995070;28;20203;-75
2023/12/19 05:40:56;;;;;;;10.30;8.27;;;6.50;99.90;;;;;;4978608;28;20194;-74
2023/12/19 05:43:24;;;;;;;9.73;7.63;;;6.50;99.90;;;;;;4972908;28;20205;-75
2023/12/19 05:45:52;;;;;;;10.83;7.83;;;6.50;99.90;;;;;;4996825;28;20209;-75
2023/12/19 05:48:22;;;;;;;12.47;8.60;;;6.50;99.90;;;;;;4997587;28;20228;-74
2023/12/19 05:50:50;;;;;;;13.87;8.27;;;6.50;99.90;;;;;;4986404;28;20205;-74
2023/12/19 05:53:17;;;;;;;13.77;9.37;;;6.60;99.90;;;;;;5004237;28;20268;-75
2023/12/19 05:55:45;;;;;;;10.90;8.47;;;6.70;99.90;;;;;;4994617;28;20203;-75
2023/12/19 05:58:44;;;;;;;11.33;8.73;;;6.60;99.90;;;;;;5008630;28;20194;-73
2023/12/19 06:01:11;;;;;;;11.50;9.33;;;6.70;99.90;;;;;;4971734;28;20225;-74
2023/12/19 06:03:40;;;;;;;11.97;9.17;;;6.60;99.90;;;;;;4995319;28;20717;-74
2023/12/19 06:06:14;;;;;;;12.23;9.23;;;6.60;99.90;;;;;;4981950;28;20693;-74
2023/12/19 06:08:42;;;;;;;11.10;9.00;;;6.70;99.90;;;;;;4983551;28;20214;-74
2023/12/19 06:11:10;;;;;;;13.43;9.67;;;6.60;99.90;;;;;;5002209;28;20224;-75
2023/12/19 06:13:38;;;;;;;12.50;10.20;;;6.60;99.90;;;;;;4980633;28;20204;-75
2023/12/19 06:16:06;;;;;;;14.07;10.70;;;6.70;99.90;;;;;;4979819;28;20214;-75
2023/12/19 06:18:34;;;;;;;14.90;11.37;;;6.70;99.90;;;;;;4983058;28;20225;-74
2023/12/19 06:21:02;;;;;;;14.03;10.47;;;6.70;99.90;;;;;;5004045;28;20226;-75
2023/12/19 06:23:30;;;;;;;14.80;11.30;;;6.70;99.90;;;;;;4970588;28;20213;-74
2023/12/19 06:25:58;;;;;;;17.30;12.93;;;6.70;99.90;;;;;;5017980;23;20230;-75
2023/12/19 06:28:26;;;;;;;17.87;12.73;;;6.70;99.90;;;;;;4997638;28;20681;-76
2023/12/19 06:30:55;;;;;;;18.23;13.70;;;6.80;99.90;;;;;;4979919;28;20198;-76
2023/12/19 06:33:22;;;;;;;17.40;12.90;;;6.80;99.90;;;;;;4998053;28;20207;-75
2023/12/19 06:35:51;;;;;;;18.30;13.67;;;6.70;99.90;;;;;;4983393;28;20718;-75
2023/12/19 06:38:20;;;;;;;22.20;14.70;;;6.80;99.90;;;;;;4998174;28;20203;-76
2023/12/19 06:40:48;;;;;;;18.43;14.33;;;6.80;99.90;;;;;;4995705;28;20670;-76
2023/12/19 06:43:15;;;;;;;23.43;16.37;;;6.80;99.90;;;;;;5001665;28;20229;-76
2023/12/19 06:45:43;;;;;;;19.07;13.63;;;6.80;99.90;;;;;;5019564;28;20228;-75
2023/12/19 06:48:10;;;;;;;21.83;16.93;;;6.80;99.90;;;;;;4995921;28;20209;-76
2023/12/19 06:50:39;;;;;;;21.37;16.67;;;6.80;99.90;;;;;;5012715;28;20194;-76
2023/12/19 06:53:06;;;;;;;21.17;15.73;;;6.90;99.90;;;;;;5007817;28;20245;-75
2023/12/19 06:55:37;;;;;;;21.67;16.13;;;6.90;99.90;;;;;;5000618;28;20223;-75
2023/12/19 06:58:05;;;;;;;23.67;16.43;;;6.90;99.90;;;;;;5000122;28;20202;-75
2023/12/19 07:00:33;;;;;;;21.07;14.90;;;6.90;99.90;;;;;;5021214;28;20210;-76
2023/12/19 07:03:00;;;;;;;19.27;14.47;;;6.90;99.90;;;;;;5002380;28;20201;-76
2023/12/19 07:05:27;;;;;;;19.87;14.13;;;6.90;99.90;;;;;;4995713;28;20576;-76
2023/12/19 07:08:20;;;;;;;19.93;14.63;;;6.90;99.90;;;;;;4995272;28;20213;-75
2023/12/19 07:10:48;;;;;;;15.53;13.10;;;6.90;99.90;;;;;;5005206;28;20207;-75
2023/12/19 07:13:16;;;;;;;18.93;14.60;;;7.00;99.90;;;;;;5009530;28;20198;-74
2023/12/19 07:15:43;;;;;;;18.07;13.93;;;7.00;99.90;;;;;;4999007;28;20233;-75
2023/12/19 07:18:24;;;;;;;18.63;14.33;;;7.00;99.90;;;;;;4997205;28;20577;-74
2023/12/19 07:20:56;;;;;;;22.90;14.87;;;7.00;99.90;;;;;;5018444;28;20541;-74
2023/12/19 07:23:23;;;;;;;18.47;12.60;;;7.10;99.90;;;;;;5010661;28;20193;-74
2023/12/19 07:25:52;;;;;;;17.77;12.97;;;7.00;99.90;;;;;;5001217;28;20225;-75
2023/12/19 07:28:20;;;;;;;15.63;12.83;;;7.00;99.90;;;;;;5003759;28;20220;-75
2023/12/19 07:30:52;;;;;;;16.87;12.47;;;7.00;99.90;;;;;;4993699;28;20214;-76
2023/12/19 07:33:20;;;;;;;15.27;11.03;;;7.00;99.90;;;;;;5022644;28;20203;-75
2023/12/19 07:35:47;;;;;;;18.33;13.30;;;7.10;99.90;;;;;;5001396;28;20221;-75
2023/12/19 07:38:14;;;;;;;12.33;9.97;;;7.10;99.90;;;;;;4995179;28;20222;-75
2023/12/19 07:40:42;;;;;;;15.90;13.07;;;7.10;99.90;;;;;;5000881;28;20221;-75
2023/12/19 07:43:11;;;;;;;16.10;12.63;;;7.10;99.90;;;;;;5002701;28;20203;-76
2023/12/19 07:45:38;;;;;;;17.50;12.40;;;7.10;99.90;;;;;;5016801;28;20221;-76
2023/12/19 07:48:06;;;;;;;16.27;13.00;;;7.10;99.90;;;;;;4999339;28;20216;-76
2023/12/19 07:50:34;;;;;;;17.93;12.87;;;7.10;99.90;;;;;;5008948;28;20207;-75
2023/12/19 07:53:01;;;;;;;16.50;12.67;;;7.10;99.90;;;;;;5018846;28;20212;-75
2023/12/19 07:55:28;;;;;;;15.80;12.30;;;7.10;99.90;;;;;;5016532;28;20205;-75
2023/12/19 07:57:56;;;;;;;16.47;12.60;;;7.10;99.90;;;;;;5002645;28;20199;-76
2023/12/19 08:00:24;;;;;;;15.73;12.60;;;7.10;99.90;;;;;;4998068;28;20600;-75
2023/12/19 08:02:53;;;;;;;19.33;13.83;;;7.10;99.90;;;;;;5020737;28;20192;-75
2023/12/19 08:05:21;;;;;;;17.80;13.50;;;7.10;99.90;;;;;;4998117;28;20203;-76
2023/12/19 08:07:48;;;;;;;20.03;14.07;;;7.10;99.90;;;;;;4997932;28;20212;-75
2023/12/19 08:10:16;;;;;;;19.83;15.37;;;7.10;99.90;;;;;;5015253;28;20213;-75
2023/12/19 08:12:43;;;;;;;17.63;14.40;;;7.10;99.90;;;;;;4993142;28;20202;-75
2023/12/19 08:15:12;;;;;;;16.23;13.33;;;7.10;99.90;;;;;;5012864;28;20205;-75
2023/12/19 08:17:40;;;;;;;18.10;13.37;;;7.20;99.90;;;;;;4993982;28;20207;-75
2023/12/19 08:20:10;;;;;;;20.10;14.07;;;7.10;99.90;;;;;;5001527;28;20216;-75
2023/12/19 08:22:37;;;;;;;20.77;15.43;;;7.10;99.90;;;;;;4994569;28;20215;-75
2023/12/19 08:25:05;;;;;;;20.37;14.93;;;7.20;99.90;;;;;;4994808;28;20227;-76
2023/12/19 08:27:35;;;;;;;18.77;14.27;;;7.20;99.90;;;;;;5001488;28;20237;-75
2023/12/19 08:30:07;;;;;;;18.87;15.67;;;7.20;99.90;;;;;;4997407;28;20210;-76
2023/12/19 08:32:35;;;;;;;18.80;15.33;;;7.20;99.90;;;;;;4997367;28;20562;-75
2023/12/19 08:35:05;;;;;;;20.23;15.67;;;7.30;99.90;;;;;;4998336;28;20195;-76
2023/12/19 08:37:32;;;;;;;19.67;14.93;;;7.30;99.90;;;;;;5027046;28;20222;-76
2023/12/19 08:40:09;;;;;;;21.33;14.47;;;7.30;99.90;;;;;;5015194;28;20186;-76
2023/12/19 08:42:43;;;;;;;19.37;14.67;;;7.30;99.90;;;;;;5019537;28;20209;-76
2023/12/19 08:45:17;;;;;;;21.03;15.47;;;7.30;99.90;;;;;;5005199;28;20190;-75
2023/12/19 08:47:48;;;;;;;18.27;13.67;;;7.30;99.90;;;;;;5022043;28;20585;-76
2023/12/19 08:50:21;;;;;;;19.90;14.40;;;7.30;99.90;;;;;;5002484;28;20572;-76
2023/12/19 08:52:55;;;;;;;19.17;14.17;;;7.30;99.90;;;;;;5007463;28;20190;-76
2023/12/19 08:55:38;;;;;;;21.30;14.43;;;7.30;99.90;;;;;;4996975;28;20213;-76
2023/12/19 08:58:14;;;;;;;15.27;13.03;;;7.30;99.90;;;;;;4998517;28;20194;-76
2023/12/19 09:00:49;;;;;;;18.77;13.20;;;7.40;99.90;;;;;;5008231;28;20196;-75
2023/12/19 09:03:29;;;;;;;17.40;13.80;;;7.40;99.90;;;;;;5013308;28;20205;-76
2023/12/19 09:06:09;;;;;;;20.43;13.73;;;7.40;99.90;;;;;;5014193;28;20221;-76
2023/12/19 09:08:38;;;;;;;17.93;13.70;;;7.40;99.90;;;;;;5012778;28;20218;-76
2023/12/19 09:11:24;;;;;;;17.73;13.53;;;7.40;99.90;;;;;;5014322;28;20198;-75
2023/12/19 09:13:57;;;;;;;16.87;12.90;;;7.50;99.90;;;;;;4996497;28;20198;-77
2023/12/19 09:16:33;;;;;;;15.10;12.67;;;7.40;99.90;;;;;;5018250;28;20234;-77
2023/12/19 09:19:11;;;;;;;18.13;14.03;;;7.40;99.90;;;;;;5017557;28;20196;-78
2023/12/19 09:21:50;;;;;;;16.40;12.17;;;7.40;99.90;;;;;;5005481;28;20209;-77
2023/12/19 09:24:30;;;;;;;17.77;13.40;;;7.50;99.90;;;;;;4998605;28;20194;-77
2023/12/19 09:27:16;;;;;;;16.97;14.30;;;7.40;99.90;;;;;;5015568;28;20219;-77
2023/12/19 09:30:02;;;;;;;16.70;13.20;;;7.40;99.90;;;;;;5008217;28;20207;-77
2023/12/19 09:32:35;;;;;;;17.63;13.67;;;7.40;99.90;;;;;;5035215;28;20190;-78
2023/12/19 09:35:10;;;;;;;18.13;15.07;;;7.40;99.90;;;;;;5017855;28;20198;-78
2023/12/19 09:38:01;;;;;;;19.70;14.53;;;7.40;99.90;;;;;;5006216;28;20202;-77
2023/12/19 09:41:04;;;;;;;17.37;13.57;;;7.40;99.90;;;;;;5003988;28;20197;-77
2023/12/19 09:43:47;;;;;;;19.93;14.30;;;7.50;99.90;;;;;;5016011;28;20207;-77
2023/12/19 09:46:46;;;;;;;17.20;13.57;;;7.50;99.90;;;;;;5003287;28;20215;-77
2023/12/19 09:49:24;;;;;;;17.77;14.87;;;7.50;99.90;;;;;;5008322;28;20211;-77
2023/12/19 09:51:58;;;;;;;17.13;14.80;;;7.60;99.90;;;;;;4987944;28;20198;-77
2023/12/19 09:54:47;;;;;;;17.50;13.00;;;7.60;99.90;;;;;;5021782;28;20208;-77
2023/12/19 09:57:40;;;;;;;15.40;12.73;;;7.50;99.90;;;;;;5024003;28;20214;-77
2023/12/19 10:00:19;;;;;;;16.10;13.13;;;7.60;99.90;;;;;;4994608;28;20202;-77
2023/12/19 10:03:03;;;;;;;15.57;12.23;;;7.60;99.90;;;;;;5000636;28;20202;-77
2023/12/19 10:08:29;;;;;;;14.47;11.73;;;7.60;99.90;;;;;;4997252;28;20204;-77
2023/12/19 10:11:11;;;;;;;14.33;11.60;;;7.60;99.90;;;;;;4994988;28;20222;-77
2023/12/19 10:14:17;;;;;;;13.13;11.30;;;7.60;99.90;;;;;;4996693;28;20202;-77
2023/12/19 10:17:37;;;;;;;16.93;12.33;;;7.60;99.90;;;;;;4997960;28;20219;-77
2023/12/19 10:20:47;;;;;;;17.63;11.77;;;7.60;99.90;;;;;;4997899;28;20195;-78
2023/12/19 10:23:37;;;;;;;14.50;11.60;;;7.60;99.90;;;;;;4995271;28;20203;-79
2023/12/19 10:26:37;;;;;;;13.40;11.33;;;7.50;99.90;;;;;;5010751;28;20226;-78
2023/12/19 10:29:44;;;;;;;13.13;11.83;;;7.50;99.90;;;;;;5025715;28;20219;-76
2023/12/19 10:32:21;;;;;;;16.40;12.13;;;7.50;99.90;;;;;;5009925;28;20202;-76
2023/12/19 10:35:09;;;;;;;13.13;11.33;;;7.50;99.90;;;;;;5022874;28;20641;-78
2023/12/19 10:37:48;;;;;;;13.23;11.80;;;7.50;99.90;;;;;;5016492;28;20199;-78
2023/12/19 10:40:26;;;;;;;11.30;10.10;;;7.50;99.90;;;;;;5018593;28;20210;-78
2023/12/19 10:43:15;;;;;;;;;;;;;;;;;;;;;
2023/12/19 10:45:55;;;;;;;12.60;9.77;;;7.40;99.90;;;;;;4999418;28;20227;-78
2023/12/19 10:49:02;;;;;;;;;;;;;;;;;;;;;
2023/12/19 10:51:58;;;;;;;11.77;9.83;;;7.50;99.90;;;;;;4984088;28;20197;-78
2023/12/19 10:54:46;;;;;;;11.67;9.40;;;7.50;99.90;;;;;;5015360;28;20206;-78
2023/12/19 10:57:25;;;;;;;12.03;9.37;;;7.50;99.90;;;;;;4995954;28;20231;-78
2023/12/19 11:00:13;;;;;;;9.73;8.70;;;7.50;99.90;;;;;;5016881;28;20210;-78
2023/12/19 11:03:27;;;;;;;8.03;7.17;;;7.50;99.90;;;;;;4995616;28;20210;-78
2023/12/19 11:06:26;;;;;;;9.80;8.80;;;7.50;99.90;;;;;;4994016;28;20234;-78
2023/12/19 11:09:10;;;;;;;9.83;8.63;;;7.50;99.90;;;;;;4996995;28;20197;-78
2023/12/19 11:12:21;;;;;;;9.67;8.13;;;7.50;99.90;;;;;;4995429;28;20191;-78
2023/12/19 11:15:21;;;;;;;8.77;6.93;;;7.50;99.90;;;;;;5003122;28;20215;-78
2023/12/19 11:18:06;;;;;;;10.97;7.23;;;7.50;99.90;;;;;;5010550;28;20206;-78
2023/12/19 11:20:55;;;;;;;10.20;7.50;;;7.60;99.90;;;;;;4997699;28;20200;-78
2023/12/19 11:23:55;;;;;;;7.47;6.67;;;7.60;99.90;;;;;;4997298;28;20199;-78
2023/12/19 11:26:37;;;;;;;7.90;7.10;;;7.60;99.90;;;;;;5004521;28;20269;-78
2023/12/19 11:29:34;;;;;;;8.47;7.57;;;7.60;99.90;;;;;;5012786;28;20203;-78
2023/12/19 11:32:42;;;;;;;7.23;6.43;;;7.60;99.90;;;;;;5015838;28;20198;-78
2023/12/19 11:35:34;;;;;;;7.73;6.97;;;7.60;99.90;;;;;;4997098;28;20558;-78
2023/12/19 11:38:45;;;;;;;7.07;6.27;;;7.70;99.90;;;;;;5002257;28;20229;-78
2023/12/19 11:42:05;;;;;;;9.03;7.00;;;7.70;99.90;;;;;;5031679;28;20186;-78
2023/12/19 11:44:54;;;;;;;7.37;6.67;;;7.70;99.90;;;;;;5000182;28;20207;-78
2023/12/19 11:47:34;;;;;;;6.07;5.50;;;7.70;99.90;;;;;;5003089;28;20219;-78
2023/12/19 11:50:10;;;;;;;7.23;5.87;;;7.70;99.90;;;;;;5014048;28;20215;-78
2023/12/19 11:52:55;;;;;;;9.33;6.23;;;7.70;99.90;;;;;;5004666;28;20202;-78
2023/12/19 11:55:31;;;;;;;6.93;5.30;;;7.70;99.90;;;;;;5009387;28;20199;-78
2023/12/19 11:58:14;;;;;;;6.03;5.43;;;7.70;99.90;;;;;;4997540;28;20731;-78
2023/12/19 12:00:47;;;;;;;6.77;5.50;;;7.70;99.90;;;;;;5003239;28;20186;-78
2023/12/19 12:03:23;;;;;;;7.03;5.00;;;7.70;99.90;;;;;;5005682;28;20221;-78
2023/12/19 12:05:56;;;;;;;6.83;5.73;;;7.70;99.90;;;;;;5004068;28;20229;-78
2023/12/19 12:08:29;;;;;;;7.57;5.90;;;7.70;99.90;;;;;;5006676;28;20206;-78
2023/12/19 12:11:08;;;;;;;7.87;5.97;;;7.70;99.90;;;;;;5017387;28;20214;-78
2023/12/19 12:14:02;;;;;;;6.57;5.93;;;7.70;99.90;;;;;;5021008;28;20214;-78
2023/12/19 12:16:41;;;;;;;7.63;6.80;;;7.70;99.90;;;;;;5019804;28;20234;-76
2023/12/19 12:19:19;;;;;;;7.90;6.40;;;7.70;99.90;;;;;;5003862;28;20205;-77
2023/12/19 12:21:55;;;;;;;8.17;6.63;;;7.70;99.90;;;;;;5003486;28;20205;-77
2023/12/19 12:24:33;;;;;;;7.50;6.60;;;7.70;99.90;;;;;;5003310;28;20203;-77
2023/12/19 12:27:16;;;;;;;8.17;6.73;;;7.70;99.90;;;;;;5001665;28;20221;-77
2023/12/19 12:29:54;;;;;;;8.13;6.17;;;7.70;99.90;;;;;;5013945;28;20199;-77
2023/12/19 12:32:38;;;;;;;7.93;6.13;;;7.70;99.90;;;;;;5013754;28;20559;-76
2023/12/19 12:35:43;;;;;;;8.37;6.00;;;7.70;99.90;;;;;;5000693;28;20204;-77
2023/12/19 12:38:22;;;;;;;6.57;5.97;;;7.70;99.90;;;;;;4999802;28;20210;-79
2023/12/19 12:41:04;;;;;;;6.93;6.23;;;7.70;99.90;;;;;;5012704;28;20211;-76
2023/12/19 12:43:39;;;;;;;7.93;6.47;;;7.70;99.90;;;;;;5018014;28;20592;-76
2023/12/19 12:46:12;;;;;;;7.23;5.97;;;7.70;99.90;;;;;;5012947;28;20222;-77
2023/12/19 12:49:04;;;;;;;7.90;6.20;;;7.70;99.90;;;;;;4995643;28;20203;-77
2023/12/19 12:51:37;;;;;;;8.07;6.50;;;7.70;99.90;;;;;;5001886;28;20720;-77
2023/12/19 12:54:05;;;;;;;7.60;6.73;;;7.70;99.90;;;;;;4996974;28;20204;-76
2023/12/19 12:56:34;;;;;;;8.10;6.30;;;7.70;99.90;;;;;;4996297;28;20231;-76
2023/12/19 12:59:06;;;;;;;6.67;6.07;;;7.80;99.90;;;;;;5000702;28;20214;-77
2023/12/19 13:01:46;;;;;;;8.03;6.83;;;7.80;99.90;;;;;;4997040;28;20206;-77
2023/12/19 13:04:17;;;;;;;7.43;6.60;;;7.80;99.90;;;;;;5000769;28;20209;-77
2023/12/19 13:06:54;;;;;;;7.53;6.33;;;7.80;99.90;;;;;;5017193;28;20214;-77
2023/12/19 13:10:14;;;;;;;7.77;6.43;;;7.80;99.90;;;;;;5003420;28;20198;-77
2023/12/19 13:12:49;;;;;;;8.37;6.43;;;7.80;99.90;;;;;;5019804;28;20209;-77
2023/12/19 13:15:30;;;;;;;8.80;6.47;;;7.80;99.90;;;;;;5001341;28;20203;-78
2023/12/19 13:18:20;;;;;;;7.93;6.40;;;7.80;99.90;;;;;;5005087;28;20203;-77